Main page
Satellite images 10-day forecastsClimateMarine weather Cyclones Lightning AirportsFAQ Newsletter About
Weather : Europe Africa North America South America Asia Australia-Oceania Others
Languages Contact

Frankfurt, Germany

Frankfurt Airport

latitude: 50-03N, longitude: 008-36E, elevation: 111 m


METAR: EDDF 250450Z 27003KT 230V330 CAVOK 14/12 Q1015 NOSIG
TAF: EDDF 242300Z 2500/2606 VRB03KT CAVOK BECMG 2508/2511 32007KT PROB30 TEMPO 2513/2520 SHRA SCT035CB

Time: 07:09 (05:09 UTC)

Current weather observation

The report was made 19 minutes ago, at 04:50 UTC
Wind 3 kt from the West, varying between Southwest and North/Northwest
Temperature 14°C
Humidity 88%
Pressure 1015 hPa
Visibility 10 km or more
no clouds below 1500 m and no cumulonimbus

Change units

Forecast

The report was made 6 hours and 9 minutes ago, at 23:00 UTC
Forecast valid from 25 at 00 UTC to 26 at 06 UTC
Wind 3 kt from variable directions
Visibility 10 km or more
no clouds below 1500 m and no cumulonimbus
Becoming
from 25 at 08 UTC to 25 at 11 UTC
Wind 7 kt from the Northwest
Probability 30% :
Temporary
from 25 at 13 UTC to 25 at 20 UTC
Scattered clouds at a height of 3500 ft, Cumulonimbus.
rain showers
The information on this site is subject to a disclaimer
Weather : Europe Africa North America South America Asia Australia-Oceania Others
Satellite images 10-day forecastsClimateMarine weather Cyclones Lightning AirportsFAQ Languages Contact Newsletter About